createdAt,value
2023-02-15T00:00:52.451Z,99.99
2023-02-15T00:01:52.521Z,99.99
2023-02-15T00:02:52.480Z,99.99
2023-02-15T00:03:52.432Z,99.99
2023-02-15T00:04:52.368Z,99.99
2023-02-15T00:05:52.338Z,99.99
2023-02-15T00:06:52.336Z,99.99
2023-02-15T00:07:52.324Z,99.99
2023-02-15T00:08:52.042Z,99.99
2023-02-15T00:09:52.302Z,99.99
2023-02-15T00:10:52.020Z,99.99
2023-02-15T00:11:52.253Z,99.99
2023-02-15T00:12:52.225Z,99.99
2023-02-15T00:13:51.935Z,99.99
2023-02-15T00:14:52.183Z,99.99
2023-02-15T00:15:51.911Z,99.99
2023-02-15T00:16:51.885Z,99.99
2023-02-15T00:17:52.129Z,99.99
2023-02-15T00:18:52.109Z,99.99
2023-02-15T00:19:52.131Z,99.99
2023-02-15T00:20:52.087Z,99.99
2023-02-15T00:21:52.098Z,99.99
2023-02-15T00:22:51.773Z,99.99
2023-02-15T00:23:52.016Z,99.99
2023-02-15T00:24:51.986Z,99.99
2023-02-15T00:25:51.966Z,99.99
2023-02-15T00:26:51.954Z,99.99
2023-02-15T00:27:51.932Z,99.99
2023-02-15T00:28:51.905Z,99.99
2023-02-15T00:29:52.086Z,99.99
2023-02-15T00:30:52.182Z,99.99
2023-02-15T00:31:53.021Z,99.99
2023-02-15T00:32:52.807Z,99.99
2023-02-15T00:33:52.760Z,99.99
2023-02-15T00:34:52.782Z,99.99
2023-02-15T00:35:52.781Z,99.99
2023-02-15T00:36:52.725Z,99.99
2023-02-15T00:37:52.432Z,99.99
2023-02-15T00:38:52.665Z,99.99
2023-02-15T00:39:52.410Z,99.99
2023-02-15T00:40:52.368Z,99.99
2023-02-15T00:41:52.622Z,99.99
2023-02-15T00:42:52.339Z,99.99
2023-02-15T00:43:52.316Z,99.99
2023-02-15T00:44:52.296Z,99.99
2023-02-15T00:45:52.329Z,99.99
2023-02-15T00:46:52.518Z,99.99
2023-02-15T00:47:52.496Z,99.99
2023-02-15T00:48:52.491Z,99.99
2023-02-15T00:49:52.462Z,99.99
2023-02-15T00:50:52.432Z,99.99
2023-02-15T00:51:52.528Z,99.99
2023-02-15T00:52:52.141Z,99.99
2023-02-15T00:53:52.386Z,99.99
2023-02-15T00:54:52.357Z,99.99
2023-02-15T00:55:52.338Z,99.99
2023-02-15T00:56:52.318Z,99.99
2023-02-15T00:57:52.301Z,99.99
2023-02-15T00:58:52.279Z,99.99
2023-02-15T00:59:52.263Z,99.99
2023-02-15T01:00:52.234Z,99.99
2023-02-15T01:01:51.959Z,99.99
2023-02-15T01:02:51.958Z,99.99
2023-02-15T01:03:51.927Z,99.99
2023-02-15T01:04:51.925Z,99.99
2023-02-15T01:05:52.148Z,99.99
2023-02-15T01:06:51.860Z,99.99
2023-02-15T01:07:54.382Z,99.99
2023-02-15T01:08:51.823Z,99.99
2023-02-15T01:09:52.069Z,99.99
2023-02-15T01:10:51.782Z,99.99
2023-02-15T01:11:51.760Z,99.99
2023-02-15T01:12:52.008Z,99.99
2023-02-15T01:13:51.990Z,99.99
2023-02-15T01:14:51.961Z,99.99
2023-02-15T01:15:52.020Z,99.99
2023-02-15T01:16:52.000Z,99.99
2023-02-15T01:17:51.900Z,99.99
2023-02-15T01:18:51.644Z,99.99
2023-02-15T01:19:51.858Z,99.99
2023-02-15T01:20:51.893Z,99.99
2023-02-15T01:21:51.823Z,99.99
2023-02-15T01:22:51.801Z,99.99
2023-02-15T01:23:51.833Z,99.99
2023-02-15T01:24:51.775Z,99.99
2023-02-15T01:25:51.736Z,99.99
2023-02-15T01:26:51.772Z,99.99
2023-02-15T01:27:51.693Z,99.99
2023-02-15T01:28:51.492Z,99.99
2023-02-15T01:29:51.774Z,99.99
2023-02-15T01:30:51.817Z,99.99
2023-02-15T01:31:51.741Z,99.99
2023-02-15T01:32:51.593Z,99.99
2023-02-15T01:33:51.588Z,99.99
2023-02-15T01:34:51.301Z,99.99
2023-02-15T01:35:51.530Z,99.99
2023-02-15T01:36:51.520Z,99.99
2023-02-15T01:37:51.246Z,99.99
2023-02-15T01:38:51.473Z,99.99
2023-02-15T01:39:51.517Z,99.99
2023-02-15T01:40:51.174Z,99.99
2023-02-15T01:41:51.408Z,99.99
2023-02-15T01:42:51.393Z,99.99
2023-02-15T01:43:51.696Z,99.99
2023-02-15T01:44:51.690Z,99.99
2023-02-15T01:45:51.671Z,99.99
2023-02-15T01:46:51.377Z,99.99
2023-02-15T01:47:51.622Z,99.99
2023-02-15T01:48:51.600Z,99.99
2023-02-15T01:49:51.314Z,99.99
2023-02-15T01:50:51.294Z,99.99
2023-02-15T01:51:51.315Z,99.99
2023-02-15T01:52:51.248Z,99.99
2023-02-15T01:54:51.477Z,99.99
2023-02-15T01:55:51.497Z,99.99
2023-02-15T01:56:51.170Z,99.99
2023-02-15T01:57:51.162Z,99.99
2023-02-15T01:58:51.389Z,99.99
2023-02-15T01:59:51.103Z,99.99
2023-02-15T02:00:51.082Z,99.99
2023-02-15T02:01:51.485Z,99.99
2023-02-15T02:02:51.351Z,99.99
2023-02-15T02:03:51.283Z,99.99
2023-02-15T02:04:51.261Z,99.99
2023-02-15T02:05:51.238Z,99.99
2023-02-15T02:06:51.221Z,99.99
2023-02-15T02:07:50.950Z,99.99
2023-02-15T02:08:51.177Z,99.99
2023-02-15T02:09:51.167Z,99.99
2023-02-15T02:10:50.893Z,99.99
2023-02-15T02:11:51.162Z,99.99
2023-02-15T02:12:50.847Z,99.99
2023-02-15T02:13:51.081Z,99.99
2023-02-15T02:14:51.051Z,99.99
2023-02-15T02:15:51.115Z,99.99
2023-02-15T02:16:51.011Z,99.99
2023-02-15T02:17:51.005Z,99.99
2023-02-15T02:18:50.973Z,99.99
2023-02-15T02:19:50.698Z,99.99
2023-02-15T02:20:50.928Z,99.99
2023-02-15T02:21:50.667Z,99.99
2023-02-15T02:22:50.912Z,99.99
2023-02-15T02:23:50.870Z,99.99
2023-02-15T02:24:50.856Z,99.99
2023-02-15T02:25:50.831Z,99.99
2023-02-15T02:26:50.807Z,99.99
2023-02-15T02:27:50.843Z,99.99
2023-02-15T02:28:50.767Z,99.99
2023-02-15T02:29:50.756Z,99.99
2023-02-15T02:30:51.015Z,99.99
2023-02-15T02:31:50.848Z,99.99
2023-02-15T02:32:50.686Z,99.99
2023-02-15T02:33:50.666Z,99.99
2023-02-15T02:34:50.659Z,99.99
2023-02-15T02:35:50.621Z,99.99
2023-02-15T02:36:50.347Z,99.99
2023-02-15T02:37:50.592Z,99.99
2023-02-15T02:38:50.562Z,99.99
2023-02-15T02:39:50.304Z,99.99
2023-02-15T02:40:50.322Z,99.99
2023-02-15T02:41:50.507Z,99.94
2023-02-15T02:42:50.493Z,99.99
2023-02-15T02:43:50.523Z,99.37
2023-02-15T02:44:50.444Z,99.99
2023-02-15T02:45:50.426Z,99.99
2023-02-15T02:46:50.600Z,99.99
2023-02-15T02:47:50.386Z,99.99
2023-02-15T02:48:50.358Z,99.99
2023-02-15T02:49:50.096Z,99.99
2023-02-15T02:50:50.062Z,99.99
2023-02-15T02:51:50.305Z,99.99
2023-02-15T02:52:50.303Z,99.99
2023-02-15T02:53:50.262Z,99.99
2023-02-15T02:54:50.240Z,99.99
2023-02-15T02:55:50.220Z,99.99
2023-02-15T02:56:50.202Z,99.89
2023-02-15T02:57:50.188Z,99.8
2023-02-15T02:58:49.906Z,99.99
2023-02-15T02:59:50.188Z,99.71
2023-02-15T03:00:49.863Z,98.85
2023-02-15T03:01:50.262Z,98.85
2023-02-15T03:02:50.196Z,99.04
2023-02-15T03:03:50.056Z,98
2023-02-15T03:04:49.789Z,97.91
2023-02-15T03:05:50.030Z,98.24
2023-02-15T03:06:50.007Z,99.47
2023-02-15T03:07:49.725Z,99.99
2023-02-15T03:08:49.967Z,99.99
2023-02-15T03:09:49.939Z,99.99
2023-02-15T03:10:49.924Z,99.99
2023-02-15T03:11:49.919Z,99.99
2023-02-15T03:12:49.886Z,99.99
2023-02-15T03:13:49.615Z,99.99
2023-02-15T03:14:49.909Z,99.99
2023-02-15T03:15:49.918Z,99.99
2023-02-15T03:16:49.844Z,99.99
2023-02-15T03:17:49.534Z,99.99
2023-02-15T03:18:49.769Z,99.99
2023-02-15T03:19:49.491Z,99.99
2023-02-15T03:20:49.732Z,99.99
2023-02-15T03:21:49.709Z,99.99
2023-02-15T03:22:49.707Z,99.99
2023-02-15T03:23:49.663Z,99.99
2023-02-15T03:24:49.650Z,99.99
2023-02-15T03:25:49.631Z,99.99
2023-02-15T03:26:49.353Z,99.99
2023-02-15T03:27:49.593Z,99.99
2023-02-15T03:28:49.327Z,99.99
2023-02-15T03:29:49.594Z,99.99
2023-02-15T03:30:49.584Z,99.99
2023-02-15T03:31:49.791Z,99.99
2023-02-15T03:32:49.241Z,99.99
2023-02-15T03:49:51.266Z,99.99
2023-02-15T03:50:51.249Z,99.99
2023-02-15T03:51:51.176Z,99.99
2023-02-15T03:52:51.142Z,99.99
2023-02-15T03:53:51.132Z,99.99
2023-02-15T03:54:51.144Z,99.99
2023-02-15T03:55:50.830Z,99.99
2023-02-15T03:56:51.062Z,99.99
2023-02-15T03:57:51.052Z,99.99
2023-02-15T03:58:50.765Z,99.99
2023-02-15T03:59:51.005Z,99.99
2023-02-15T04:00:51.074Z,99.99
2023-02-15T04:01:50.960Z,99.99
2023-02-15T04:02:50.742Z,99.99
2023-02-15T04:03:50.928Z,99.99
2023-02-15T04:04:50.903Z,99.99
2023-02-15T04:05:50.933Z,99.99
2023-02-15T04:06:50.858Z,99.99
2023-02-15T04:07:50.847Z,99.99
2023-02-15T04:08:50.823Z,99.99
2023-02-15T04:09:50.814Z,99.99
2023-02-15T04:10:50.517Z,99.99
2023-02-15T04:11:50.507Z,99.99
2023-02-15T04:12:51.090Z,99.99
2023-02-15T04:13:50.823Z,99.99
2023-02-15T04:14:51.036Z,99.99
2023-02-15T04:15:51.020Z,99.99
2023-02-15T04:16:50.870Z,99.99
2023-02-15T04:17:50.742Z,99.99
2023-02-15T04:18:51.045Z,99.99
2023-02-15T04:19:50.950Z,99.99
2023-02-15T04:20:50.919Z,99.99
2023-02-15T04:21:50.953Z,99.99
2023-02-15T04:22:50.876Z,99.99
2023-02-15T04:23:50.867Z,99.99
2023-02-15T04:24:50.582Z,99.99
2023-02-15T04:25:51.614Z,99.99
2023-02-15T04:26:51.339Z,99.99
2023-02-15T04:27:51.573Z,99.99
2023-02-15T04:28:51.291Z,99.99
2023-02-15T04:29:51.631Z,99.99
2023-02-15T04:30:51.599Z,99.99
2023-02-15T04:31:51.666Z,99.99
2023-02-15T04:32:51.492Z,99.99
2023-02-15T04:33:51.457Z,99.99
2023-02-15T04:34:51.445Z,99.99
2023-02-15T04:35:51.424Z,99.99
2023-02-15T04:36:51.197Z,99.99
2023-02-15T04:37:51.427Z,99.99
2023-02-15T04:38:51.360Z,99.99
2023-02-15T04:39:51.353Z,99.99
2023-02-15T04:40:51.320Z,99.99
2023-02-15T04:41:51.147Z,99.99
2023-02-15T04:42:51.275Z,99.99
2023-02-15T04:43:51.000Z,99.99
2023-02-15T04:44:51.246Z,99.99
2023-02-15T04:45:51.507Z,99.99
2023-02-15T04:46:51.207Z,99.99
2023-02-15T04:47:51.197Z,99.99
2023-02-15T04:48:51.164Z,99.99
2023-02-15T04:49:51.142Z,99.99
2023-02-15T04:50:50.866Z,99.99
2023-02-15T04:51:51.105Z,99.99
2023-02-15T04:52:51.094Z,99.99
2023-02-15T04:53:51.115Z,99.99
2023-02-15T04:54:51.041Z,99.99
2023-02-15T04:55:50.781Z,99.99
2023-02-15T04:56:51.000Z,99.99
2023-02-15T04:57:50.728Z,99.99
2023-02-15T04:58:50.973Z,99.99
2023-02-15T04:59:50.712Z,99.99
2023-02-15T05:00:51.072Z,99.99
2023-02-15T05:01:50.908Z,99.99
2023-02-15T05:02:50.893Z,99.99
2023-02-15T05:03:50.892Z,99.99
2023-02-15T05:04:50.846Z,99.99
2023-02-15T05:05:50.825Z,99.99
2023-02-15T05:06:50.567Z,99.99
2023-02-15T05:07:50.790Z,99.99
2023-02-15T05:08:50.774Z,99.99
2023-02-15T05:09:50.813Z,99.99
2023-02-15T05:10:50.729Z,99.99
2023-02-15T05:11:50.717Z,99.99
2023-02-15T05:12:50.705Z,99.99
2023-02-15T05:13:50.671Z,99.99
2023-02-15T05:14:50.398Z,99.99
2023-02-15T05:15:50.628Z,99.99
2023-02-15T05:16:50.766Z,99.99
2023-02-15T05:17:50.618Z,99.99
2023-02-15T05:18:50.579Z,99.99
2023-02-15T05:19:50.554Z,99.99
2023-02-15T05:20:50.274Z,99.99
2023-02-15T05:21:50.258Z,99.99
2023-02-15T05:22:50.494Z,99.99
2023-02-15T05:23:50.476Z,99.99
2023-02-15T05:24:50.525Z,99.99
2023-02-15T05:25:50.493Z,99.99
2023-02-15T05:26:50.179Z,99.99
2023-02-15T05:27:50.151Z,99.99
2023-02-15T05:28:50.129Z,99.99
2023-02-15T05:29:50.182Z,99.99
2023-02-15T05:30:50.779Z,99.99
2023-02-15T05:31:50.466Z,99.99
2023-02-15T05:32:50.428Z,99.99
2023-02-15T05:33:50.274Z,99.99
2023-02-15T05:34:50.264Z,99.99
2023-02-15T05:35:49.983Z,99.99
2023-02-15T05:36:49.965Z,99.99
2023-02-15T05:37:50.201Z,99.99
2023-02-15T05:38:50.189Z,99.99
2023-02-15T05:39:50.162Z,99.99
2023-02-15T05:40:52.531Z,99.99
2023-02-15T05:41:50.169Z,99.99
2023-02-15T05:42:50.099Z,99.99
2023-02-15T05:43:50.082Z,99.99
2023-02-15T05:44:50.062Z,99.99
2023-02-15T05:45:50.145Z,99.99
2023-02-15T05:46:50.023Z,99.99
2023-02-15T05:47:49.752Z,99.99
2023-02-15T05:48:49.731Z,99.99
2023-02-15T05:49:49.960Z,99.99
2023-02-15T05:50:50.656Z,99.99
2023-02-15T05:51:50.658Z,99.99
2023-02-15T05:52:52.416Z,99.99
2023-02-15T05:53:50.604Z,99.99
2023-02-15T05:54:50.325Z,99.99
2023-02-15T05:55:50.306Z,99.99
2023-02-15T05:56:50.536Z,99.99
2023-02-15T05:57:50.567Z,99.99
2023-02-15T05:58:50.509Z,99.99
2023-02-15T05:59:50.221Z,99.99
2023-02-15T06:00:50.216Z,99.99
2023-02-15T06:01:50.192Z,99.99
2023-02-15T06:02:50.360Z,99.99
2023-02-15T06:03:50.547Z,99.99
2023-02-15T06:04:50.387Z,99.99
2023-02-15T06:05:50.360Z,99.99
2023-02-15T06:06:50.085Z,99.99
2023-02-15T06:07:50.326Z,99.99
2023-02-15T06:08:50.295Z,99.99
2023-02-15T06:09:50.022Z,99.99
2023-02-15T06:10:50.268Z,99.99
2023-02-15T06:11:50.245Z,99.99
2023-02-15T06:12:50.261Z,99.99
2023-02-15T06:13:50.253Z,99.99
2023-02-15T06:14:50.185Z,99.99
2023-02-15T06:15:50.289Z,99.99
2023-02-15T06:16:50.151Z,99.99
2023-02-15T06:17:50.139Z,99.99
2023-02-15T06:18:51.360Z,99.99
2023-02-15T06:19:49.829Z,99.99
2023-02-15T06:20:50.053Z,99.99
2023-02-15T06:21:50.041Z,99.99
2023-02-15T06:22:50.015Z,99.99
2023-02-15T06:23:49.996Z,99.99
2023-02-15T06:24:49.981Z,99.99
2023-02-15T06:25:49.957Z,99.99
2023-02-15T06:26:49.936Z,99.99
2023-02-15T06:27:49.922Z,99.99
2023-02-15T06:28:49.676Z,99.99
2023-02-15T06:29:49.991Z,99.99
2023-02-15T06:30:49.717Z,99.99
2023-02-15T06:31:49.831Z,99.99
2023-02-15T06:32:49.819Z,99.99
2023-02-15T06:33:49.804Z,99.99
2023-02-15T06:34:50.992Z,99.99
2023-02-15T06:35:49.764Z,99.99
2023-02-15T06:36:49.734Z,99.99
2023-02-15T06:37:49.723Z,99.99
2023-02-15T06:38:49.700Z,99.99
2023-02-15T06:39:49.671Z,99.99
2023-02-15T06:40:49.397Z,99.99
2023-02-15T06:41:49.382Z,99.99
2023-02-15T06:42:49.614Z,99.99
2023-02-15T06:43:49.335Z,99.99
2023-02-15T06:44:49.572Z,99.99
2023-02-15T06:45:49.616Z,99.99
2023-02-15T06:46:49.759Z,99.99
2023-02-15T06:47:49.737Z,99.99
2023-02-15T06:48:49.435Z,99.99
2023-02-15T06:49:49.663Z,99.99
2023-02-15T06:50:49.648Z,99.99
2023-02-15T06:51:49.375Z,99.99
2023-02-15T06:52:49.619Z,99.99
2023-02-15T06:53:49.330Z,99.99
2023-02-15T06:54:49.570Z,99.99
2023-02-15T06:55:49.539Z,99.99
2023-02-15T06:56:49.261Z,99.99
2023-02-15T06:57:52.024Z,99.99
2023-02-15T06:58:49.513Z,99.99
2023-02-15T06:59:49.455Z,99.99
2023-02-15T07:00:49.452Z,99.99
2023-02-15T07:01:49.654Z,99.99
2023-02-15T07:02:49.404Z,99.99
2023-02-15T07:03:49.372Z,99.99
2023-02-15T07:04:49.427Z,99.99
2023-02-15T07:05:49.086Z,99.99
2023-02-15T07:06:49.333Z,99.99
2023-02-15T07:07:49.295Z,99.99
2023-02-15T07:08:49.298Z,99.99
2023-02-15T07:09:49.257Z,99.99
2023-02-15T07:10:49.258Z,99.99
2023-02-15T07:11:49.213Z,99.99
2023-02-15T07:12:49.237Z,99.99
2023-02-15T07:13:48.928Z,99.99
2023-02-15T07:14:49.150Z,99.99
2023-02-15T07:15:49.213Z,99.99
2023-02-15T07:16:49.119Z,99.99
2023-02-15T07:17:49.147Z,99.99
2023-02-15T07:18:49.072Z,99.99
2023-02-15T07:19:48.797Z,99.99
2023-02-15T07:20:49.029Z,99.99
2023-02-15T07:21:48.825Z,99.99
2023-02-15T07:22:49.041Z,99.99
2023-02-15T07:23:48.975Z,99.99
2023-02-15T07:24:48.964Z,99.99
2023-02-15T07:25:48.947Z,99.99
2023-02-15T07:26:48.912Z,99.99
2023-02-15T07:27:48.909Z,99.99
2023-02-15T07:28:48.916Z,99.99
2023-02-15T07:29:48.863Z,99.99
2023-02-15T07:30:48.923Z,99.99
2023-02-15T07:31:48.884Z,99.99
2023-02-15T07:32:48.846Z,99.99
2023-02-15T07:33:48.830Z,99.99
2023-02-15T07:34:48.522Z,99.99
2023-02-15T07:35:48.741Z,99.99
2023-02-15T07:36:48.724Z,99.99
2023-02-15T07:37:48.710Z,99.99
2023-02-15T07:38:48.424Z,99.99
2023-02-15T07:39:48.679Z,99.99
2023-02-15T07:40:48.659Z,99.99
2023-02-15T07:41:48.378Z,99.99
2023-02-15T07:42:48.608Z,99.99
2023-02-15T07:43:48.607Z,99.99
2023-02-15T07:44:48.316Z,99.99
2023-02-15T07:45:48.551Z,99.99
2023-02-15T07:46:48.695Z,99.99
2023-02-15T07:47:48.514Z,99.99
2023-02-15T07:48:48.243Z,99.99
2023-02-15T07:49:48.547Z,99.99
2023-02-15T07:50:48.205Z,99.99
2023-02-15T07:51:48.484Z,99.99
2023-02-15T07:52:48.426Z,99.99
2023-02-15T07:53:48.406Z,99.99
2023-02-15T07:54:48.377Z,99.99
2023-02-15T07:55:48.398Z,99.99
2023-02-15T07:56:48.347Z,99.99
2023-02-15T07:57:48.353Z,99.99
2023-02-15T07:58:48.424Z,99.99
2023-02-15T07:59:48.299Z,99.99
2023-02-15T08:00:48.022Z,99.99
2023-02-15T08:01:48.256Z,99.99
2023-02-15T08:02:48.290Z,99.99
2023-02-15T08:03:48.066Z,99.99
2023-02-15T08:04:48.242Z,99.99
2023-02-15T08:05:48.440Z,99.99
2023-02-15T08:06:48.164Z,99.99
2023-02-15T08:07:48.154Z,99.99
2023-02-15T08:08:47.870Z,99.99
2023-02-15T08:09:48.114Z,99.99
2023-02-15T08:10:47.836Z,99.99
2023-02-15T08:11:48.078Z,99.99
2023-02-15T08:12:48.061Z,99.99
2023-02-15T08:13:48.036Z,99.99
2023-02-15T08:14:47.773Z,99.99
2023-02-15T08:15:48.001Z,99.99
2023-02-15T08:16:47.831Z,99.99
2023-02-15T08:17:47.985Z,99.99
2023-02-15T08:18:47.953Z,99.99
2023-02-15T08:19:47.940Z,99.99
2023-02-15T08:20:47.659Z,99.99
2023-02-15T08:21:47.956Z,99.99
2023-02-15T08:22:47.896Z,99.99
2023-02-15T08:23:47.882Z,99.99
2023-02-15T08:24:47.848Z,99.99
2023-02-15T08:25:47.844Z,99.99
2023-02-15T08:26:47.556Z,99.99
2023-02-15T08:27:47.797Z,99.99
2023-02-15T08:28:47.543Z,99.99
2023-02-15T08:29:47.758Z,99.99
2023-02-15T08:30:47.800Z,99.99
2023-02-15T08:31:48.000Z,99.99
2023-02-15T08:32:47.705Z,99.99
2023-02-15T08:33:47.749Z,99.99
2023-02-15T08:34:47.671Z,99.99
2023-02-15T08:35:47.651Z,99.99
2023-02-15T08:36:47.425Z,99.99
2023-02-15T08:37:47.710Z,99.99
2023-02-15T08:38:47.600Z,99.99
2023-02-15T08:39:47.585Z,99.99
2023-02-15T08:40:47.599Z,99.99
2023-02-15T08:41:47.592Z,99.99
2023-02-15T08:42:47.613Z,99.99
2023-02-15T08:43:47.287Z,99.99
2023-02-15T08:44:48.945Z,99.99
2023-02-15T08:45:47.592Z,99.99
2023-02-15T08:46:47.464Z,99.99
2023-02-15T08:47:47.453Z,99.99
2023-02-15T08:48:47.443Z,99.99
2023-02-15T08:49:47.158Z,99.99
2023-02-15T08:50:47.134Z,99.99
2023-02-15T08:51:47.122Z,99.99
2023-02-15T08:52:47.362Z,99.99
2023-02-15T08:53:47.409Z,99.99
2023-02-15T08:54:47.321Z,99.99
2023-02-15T08:55:47.307Z,99.99
2023-02-15T08:56:47.309Z,99.99
2023-02-15T08:57:47.036Z,99.99
2023-02-15T08:58:46.998Z,99.99
2023-02-15T08:59:47.271Z,99.99
2023-02-15T09:00:49.855Z,99.99
2023-02-15T09:01:46.953Z,99.99
2023-02-15T09:02:47.183Z,99.99
2023-02-15T09:03:47.229Z,99.99
2023-02-15T09:04:46.898Z,99.99
2023-02-15T09:05:47.145Z,99.99
2023-02-15T09:06:49.758Z,99.99
2023-02-15T09:07:47.103Z,99.99
2023-02-15T09:08:47.086Z,99.99
2023-02-15T09:09:47.134Z,99.99
2023-02-15T09:10:47.044Z,99.99
2023-02-15T09:11:47.057Z,99.99
2023-02-15T09:12:47.012Z,99.99
2023-02-15T09:13:47.113Z,99.99
2023-02-15T09:14:46.732Z,99.99
2023-02-15T09:15:46.974Z,99.99
2023-02-15T09:16:47.135Z,99.99
2023-02-15T09:17:46.940Z,99.99
2023-02-15T09:18:46.918Z,99.99
2023-02-15T09:19:46.898Z,99.99
2023-02-15T09:20:46.878Z,99.99
2023-02-15T09:21:46.612Z,99.99
2023-02-15T09:22:46.853Z,99.99
2023-02-15T09:23:46.952Z,99.68
2023-02-15T09:24:46.555Z,99.58
2023-02-15T09:25:46.851Z,99.01
2023-02-15T09:26:46.790Z,99.01
2023-02-15T09:27:46.513Z,98.73
2023-02-15T09:28:46.744Z,98.44
2023-02-15T09:29:46.727Z,98.07
2023-02-15T09:30:47.064Z,97.12
2023-02-15T09:31:46.838Z,96.73
2023-02-15T09:32:46.688Z,95.88
2023-02-15T09:33:46.715Z,95.5
2023-02-15T09:34:46.661Z,95.88
2023-02-15T09:35:46.633Z,94.89
2023-02-15T09:36:46.360Z,94.03
2023-02-15T09:37:46.608Z,93.37
2023-02-15T09:38:46.580Z,92.61
2023-02-15T09:39:48.290Z,92.14
2023-02-15T09:40:46.545Z,91.66
2023-02-15T09:41:46.615Z,91.19
2023-02-15T09:42:46.517Z,89.58
2023-02-15T09:43:46.256Z,88.24
2023-02-15T09:44:46.498Z,87.62
2023-02-15T09:45:46.327Z,87.43
2023-02-15T09:46:46.457Z,86.96
2023-02-15T09:47:46.461Z,86.87
2023-02-15T09:48:46.439Z,86.49
2023-02-15T09:49:46.404Z,85.35
2023-02-15T09:50:46.134Z,84.68
2023-02-15T09:51:46.375Z,84.49
2023-02-15T09:52:46.102Z,83.92
2023-02-15T09:53:46.501Z,84.21
2023-02-15T09:54:46.328Z,83.73
2023-02-15T09:55:46.339Z,83.83
2023-02-15T09:56:46.296Z,83.49
2023-02-15T09:57:46.369Z,83.59
2023-02-15T09:58:46.271Z,84.06
2023-02-15T09:59:46.000Z,82.97
2023-02-15T10:00:46.243Z,83.2
2023-02-15T10:01:46.304Z,83.3
2023-02-15T10:02:46.226Z,83.2
2023-02-15T10:03:46.298Z,83.39
2023-02-15T10:04:46.295Z,82.78
2023-02-15T10:05:46.156Z,82.59
2023-02-15T10:06:46.163Z,82.5
2023-02-15T10:07:46.138Z,82.69
2023-02-15T10:08:45.858Z,82.21
2023-02-15T10:09:46.107Z,82.16
2023-02-15T10:10:46.118Z,81.84
2023-02-15T10:11:46.071Z,81.87
2023-02-15T10:12:45.827Z,81.97
2023-02-15T10:13:46.245Z,81.97
2023-02-15T10:14:45.772Z,82.03
2023-02-15T10:15:46.009Z,81.87
2023-02-15T10:16:46.175Z,82.07
2023-02-15T10:17:46.004Z,82.12
2023-02-15T10:18:45.965Z,82.12
2023-02-15T10:19:45.952Z,81.74
2023-02-15T10:20:45.938Z,81.59
2023-02-15T10:21:45.680Z,81.4
2023-02-15T10:22:45.651Z,81.49
2023-02-15T10:23:45.890Z,81.3
2023-02-15T10:24:50.893Z,81.49
2023-02-15T10:25:45.608Z,81.49
2023-02-15T10:26:45.846Z,81.21
2023-02-15T10:27:45.826Z,81.12
2023-02-15T10:28:45.562Z,80.64
2023-02-15T10:29:45.953Z,80.45
2023-02-15T10:30:46.026Z,80.35
2023-02-15T10:31:46.063Z,80.55
2023-02-15T10:32:45.752Z,80.77
2023-02-15T10:33:45.841Z,80.58
2023-02-15T10:34:45.498Z,80.4
2023-02-15T10:35:45.730Z,80.02
2023-02-15T10:36:45.463Z,79.92
2023-02-15T10:37:45.709Z,79.63
2023-02-15T10:38:45.685Z,79.49
2023-02-15T10:39:45.675Z,79.11
2023-02-15T10:40:45.656Z,78.82
2023-02-15T10:41:47.104Z,78.63
2023-02-15T10:42:45.635Z,77.39
2023-02-15T10:43:45.617Z,76.73
2023-02-15T10:44:45.596Z,76.1
2023-02-15T10:45:45.776Z,67.25
2023-02-15T10:46:45.316Z,67.54
2023-02-15T10:47:45.584Z,68.3
2023-02-15T10:48:45.540Z,69.25
2023-02-15T10:49:46.132Z,69.92
2023-02-15T10:50:46.133Z,69.82
2023-02-15T10:51:46.108Z,69.48
2023-02-15T10:52:45.838Z,69.67
2023-02-15T10:53:46.079Z,69.76
2023-02-15T10:54:45.885Z,69.19
2023-02-15T10:55:46.056Z,68.71
2023-02-15T10:56:46.032Z,68.05
2023-02-15T10:57:46.060Z,67.67
2023-02-15T10:58:46.016Z,67.13
2023-02-15T10:59:45.991Z,66.46
2023-02-15T11:00:45.976Z,65.51
2023-02-15T11:01:46.144Z,65.03
2023-02-15T11:02:45.965Z,64.47
2023-02-15T11:03:45.953Z,63.99
2023-02-15T11:04:45.995Z,61.22
2023-02-15T11:05:45.930Z,57.82
2023-02-15T11:06:45.900Z,52.94
2023-02-15T11:07:45.629Z,51.06
2023-02-15T11:08:45.872Z,50.59
2023-02-15T11:09:45.884Z,50.4
2023-02-15T11:10:45.869Z,49.26
2023-02-15T11:11:45.596Z,48.78
2023-02-15T11:12:45.827Z,48.58
2023-02-15T11:13:45.953Z,47.82
2023-02-15T11:14:46.206Z,48.11
2023-02-15T11:15:46.328Z,47.18
2023-02-15T11:16:46.279Z,45.84
2023-02-15T11:17:46.222Z,45.47
2023-02-15T11:18:46.158Z,45.47
2023-02-15T11:19:46.152Z,45.84
2023-02-15T11:20:46.113Z,45.56
2023-02-15T11:21:46.101Z,44.89
2023-02-15T11:22:46.091Z,44.99
2023-02-15T11:23:46.120Z,44.99
2023-02-15T11:24:46.071Z,44.99
2023-02-15T11:25:46.056Z,44.13
2023-02-15T11:26:46.049Z,42.8
2023-02-15T11:27:47.621Z,41.27
2023-02-15T11:28:46.018Z,41.46
2023-02-15T11:29:46.006Z,41.36
2023-02-15T11:30:46.143Z,40.99
2023-02-15T11:31:46.012Z,40.32
2023-02-15T11:32:45.986Z,40.22
2023-02-15T11:33:46.122Z,39.65
2023-02-15T11:34:45.947Z,39.08
2023-02-15T11:35:46.184Z,38.89
2023-02-15T11:36:46.179Z,38.12
2023-02-15T11:37:45.903Z,37.84
2023-02-15T11:38:46.147Z,38.41
2023-02-15T11:39:46.136Z,38.32
2023-02-15T11:40:45.867Z,38.03
2023-02-15T11:41:45.852Z,38.22
2023-02-15T11:42:46.122Z,39.17
2023-02-15T11:43:46.087Z,39.36
2023-02-15T11:44:46.078Z,39.08
2023-02-15T11:45:46.082Z,38.51
2023-02-15T11:46:46.273Z,39.84
2023-02-15T11:47:46.048Z,39.84
2023-02-15T11:48:46.051Z,39.36
2023-02-15T11:49:46.063Z,39.36
2023-02-15T11:50:46.005Z,38.98
2023-02-15T11:51:45.990Z,36.79
2023-02-15T11:52:45.985Z,36.69
2023-02-15T11:53:46.371Z,37.08
2023-02-15T11:54:46.095Z,35.74
2023-02-15T11:55:46.096Z,36.6
2023-02-15T11:56:46.331Z,37.27
2023-02-15T11:57:46.062Z,36.88
2023-02-15T11:58:46.308Z,37.17
2023-02-15T11:59:46.300Z,37.36
2023-02-15T12:00:46.284Z,37.27
2023-02-15T12:01:46.292Z,37.08
2023-02-15T12:02:46.429Z,37.76
2023-02-15T12:03:46.415Z,38.51
2023-02-15T12:04:46.254Z,39.48
2023-02-15T12:05:46.303Z,40.22
2023-02-15T12:06:46.211Z,40.8
2023-02-15T12:07:46.198Z,41.08
2023-02-15T12:08:45.937Z,41.65
2023-02-15T12:09:45.956Z,41.36
2023-02-15T12:10:46.200Z,42.41
2023-02-15T12:11:46.195Z,42.7
2023-02-15T12:12:46.162Z,42.8
2023-02-15T12:13:46.130Z,42.8
2023-02-15T12:14:46.136Z,43.37
2023-02-15T12:15:45.940Z,42.8
2023-02-15T12:16:45.837Z,43.18
2023-02-15T12:17:46.077Z,43.27
2023-02-15T12:18:46.074Z,43.56
2023-02-15T12:19:46.074Z,43.56
2023-02-15T12:20:45.801Z,43.84
2023-02-15T12:21:46.249Z,43.56
2023-02-15T12:22:46.043Z,43.46
2023-02-15T12:23:46.025Z,43.46
2023-02-15T12:24:45.993Z,43.27
2023-02-15T12:25:45.735Z,42.51
2023-02-15T12:26:45.976Z,42.22
2023-02-15T12:27:45.967Z,41.72
2023-02-15T12:28:45.957Z,41.08
2023-02-15T12:29:45.941Z,40.77
2023-02-15T12:30:45.924Z,40.68
2023-02-15T12:31:46.179Z,40.48
2023-02-15T12:32:45.900Z,40.2
2023-02-15T12:33:45.893Z,40.11
2023-02-15T12:34:45.626Z,40.11
2023-02-15T12:35:45.871Z,41.06
2023-02-15T12:36:45.860Z,41.25
2023-02-15T12:37:45.892Z,41.25
2023-02-15T12:38:45.831Z,41.25
2023-02-15T12:39:45.821Z,41.72
2023-02-15T12:40:45.550Z,41.53
2023-02-15T12:41:45.807Z,42.11
2023-02-15T12:42:45.790Z,42.2
2023-02-15T12:43:45.792Z,42.49
2023-02-15T12:44:45.501Z,42.68
2023-02-15T12:45:45.747Z,44.11
2023-02-15T12:46:47.504Z,43.82
2023-02-15T12:47:45.724Z,43.73
2023-02-15T12:48:45.711Z,43.61
2023-02-15T12:49:50.130Z,43.32
2023-02-15T12:50:45.705Z,43.13
2023-02-15T12:51:45.773Z,43.51
2023-02-15T12:52:45.415Z,43.9
2023-02-15T12:53:47.614Z,44.56
2023-02-15T12:54:45.640Z,43.42
2023-02-15T12:55:48.665Z,43.32
2023-02-15T12:56:45.624Z,43.13
2023-02-15T12:57:45.600Z,43.42
2023-02-15T12:58:45.341Z,43.42
2023-02-15T12:59:47.128Z,44.27
2023-02-15T13:00:45.681Z,44.27
2023-02-15T13:01:45.630Z,44.56
2023-02-15T13:02:45.285Z,44.56
2023-02-15T13:03:45.528Z,44.37
2023-02-15T13:04:45.515Z,43.99
2023-02-15T13:05:47.262Z,44.37
2023-02-15T13:06:45.526Z,43.51
2023-02-15T13:07:45.225Z,42.85
2023-02-15T13:08:45.478Z,43.23
2023-02-15T13:09:45.504Z,43.23
2023-02-15T13:10:45.444Z,43.42